createdAt,value
2023-11-19T00:00:59.403Z,2.5
2023-11-19T00:01:59.556Z,2.1
2023-11-19T00:03:00.077Z,2.3
2023-11-19T00:04:00.460Z,2
2023-11-19T00:05:01.261Z,2
2023-11-19T00:06:01.122Z,1.8
2023-11-19T00:07:01.665Z,2.6
2023-11-19T00:08:02.045Z,2.1
2023-11-19T00:09:02.524Z,2.4
2023-11-19T00:10:03.038Z,2.2
2023-11-19T00:11:03.246Z,2.3
2023-11-19T00:12:07.047Z,1.9
2023-11-19T00:13:04.926Z,2.2
2023-11-19T00:14:05.422Z,2.5
2023-11-19T00:15:05.849Z,2.2
2023-11-19T00:16:06.817Z,2
2023-11-19T00:17:05.863Z,2.3
2023-11-19T00:18:06.325Z,2.1
2023-11-19T00:19:06.666Z,2
2023-11-19T00:20:08.952Z,2.3
2023-11-19T00:21:08.020Z,2.1
2023-11-19T00:22:08.589Z,2.3
2023-11-19T00:23:08.988Z,2.5
2023-11-19T00:24:09.886Z,2.1
2023-11-19T00:25:10.343Z,2.2
2023-11-19T00:26:10.036Z,2.2
2023-11-19T00:27:10.225Z,2.1
2023-11-19T00:28:10.982Z,2.1
2023-11-19T00:29:11.267Z,2.5
2023-11-19T00:30:12.184Z,2.1
2023-11-19T00:31:12.119Z,2.3
2023-11-19T00:32:12.428Z,2.3
2023-11-19T00:33:12.838Z,2
2023-11-19T00:34:13.150Z,2.2
2023-11-19T00:35:13.451Z,2.7
2023-11-19T00:36:13.809Z,2.2
2023-11-19T00:37:14.837Z,2.7
2023-11-19T00:38:14.803Z,2.1
2023-11-19T00:39:15.110Z,2.5
2023-11-19T00:40:15.978Z,2.3
2023-11-19T00:41:16.596Z,2.3
2023-11-19T00:42:16.132Z,2.3
2023-11-19T00:43:16.721Z,2.5
2023-11-19T00:44:16.886Z,2
2023-11-19T00:45:17.418Z,2.3
2023-11-19T00:46:17.845Z,2.4
2023-11-19T00:47:18.367Z,2.8
2023-11-19T00:48:18.661Z,2.4
2023-11-19T00:49:18.909Z,3.3
2023-11-19T00:50:19.607Z,2.8
2023-11-19T00:51:19.698Z,6.1
2023-11-19T00:52:20.350Z,3.3
2023-11-19T00:53:20.735Z,2.8
2023-11-19T00:54:21.250Z,2.4
2023-11-19T00:55:21.270Z,2.4
2023-11-19T00:56:21.584Z,2.5
2023-11-19T00:57:22.814Z,2.2
2023-11-19T00:58:23.192Z,2.1
2023-11-19T00:59:23.447Z,2.6
2023-11-19T01:00:23.981Z,2.3
2023-11-19T01:01:25.195Z,2.3
2023-11-19T01:02:24.700Z,2.7
2023-11-19T01:03:25.167Z,2.5
2023-11-19T01:04:25.617Z,2.4
2023-11-19T01:05:26.402Z,2.2
2023-11-19T01:06:32.599Z,2.3
2023-11-19T01:07:29.863Z,2.2
2023-11-19T01:08:30.293Z,2.4
2023-11-19T01:09:31.089Z,2.3
2023-11-19T01:10:31.103Z,2.5
2023-11-19T01:11:31.407Z,2.5
2023-11-19T01:12:32.014Z,2.2
2023-11-19T01:13:32.426Z,2.3
2023-11-19T01:14:32.403Z,2.4
2023-11-19T01:15:33.606Z,2.3
2023-11-19T01:16:33.264Z,2.2
2023-11-19T01:17:33.636Z,2.5
2023-11-19T01:18:34.118Z,2.3
2023-11-19T01:19:34.657Z,2.4
2023-11-19T01:20:34.838Z,2.3
2023-11-19T01:21:35.326Z,2.3
2023-11-19T01:22:35.618Z,2.5
2023-11-19T01:23:36.829Z,2.4
2023-11-19T01:24:36.511Z,2.3
2023-11-19T01:25:36.689Z,2.4
2023-11-19T01:26:37.382Z,2.1
2023-11-19T01:27:37.563Z,2.6
2023-11-19T01:28:38.276Z,2.6
2023-11-19T01:29:38.354Z,2.4
2023-11-19T01:30:38.602Z,2.4
2023-11-19T01:31:39.019Z,2.2
2023-11-19T01:32:40.191Z,2.4
2023-11-19T01:33:40.292Z,2.8
2023-11-19T01:34:40.304Z,2.3
2023-11-19T01:35:40.693Z,2.5
2023-11-19T01:36:40.996Z,2.5
2023-11-19T01:37:41.241Z,2.3
2023-11-19T01:38:41.843Z,2.5
2023-11-19T01:39:45.218Z,2.5
2023-11-19T01:40:42.649Z,2.5
2023-11-19T01:41:42.868Z,2.3
2023-11-19T01:42:43.294Z,2.3
2023-11-19T01:43:43.693Z,2.5
2023-11-19T01:45:48.226Z,2.3
2023-11-19T01:46:49.172Z,2.4
2023-11-19T01:47:48.665Z,2.7
2023-11-19T01:48:49.061Z,2.3
2023-11-19T01:49:49.494Z,2.7
2023-11-19T01:51:54.625Z,2.4
2023-11-19T01:52:55.648Z,2.5
2023-11-19T01:53:56.253Z,2.5
2023-11-19T01:54:56.185Z,2.6
2023-11-19T01:55:56.327Z,2.4
2023-11-19T01:56:57.933Z,2.4
2023-11-19T01:57:59.363Z,2.6
2023-11-19T01:58:57.921Z,2.4
2023-11-19T01:59:57.313Z,2.4
2023-11-19T02:00:58.812Z,2.4
2023-11-19T02:02:01.731Z,2.5
2023-11-19T02:02:59.700Z,2.5
2023-11-19T02:04:00.268Z,2.3
2023-11-19T02:05:00.499Z,2.3
2023-11-19T02:06:01.458Z,2.4
2023-11-19T02:07:01.304Z,2.7
2023-11-19T02:08:01.364Z,2.5
2023-11-19T02:09:01.821Z,2.5
2023-11-19T02:10:02.165Z,2.4
2023-11-19T02:11:02.530Z,2.3
2023-11-19T02:12:02.940Z,2.4
2023-11-19T02:14:04.085Z,2.8
2023-11-19T02:15:07.763Z,2.6
2023-11-19T02:16:05.787Z,2.5
2023-11-19T02:17:06.362Z,2.5
2023-11-19T02:19:10.979Z,2.5
2023-11-19T02:20:11.707Z,2.5
2023-11-19T02:21:11.507Z,2.7
2023-11-19T02:22:12.026Z,2.2
2023-11-19T02:23:14.579Z,2.5
2023-11-19T02:24:15.297Z,2.1
2023-11-19T02:25:21.014Z,2.6
2023-11-19T02:28:18.617Z,2.5
2023-11-19T02:29:18.823Z,2.4
2023-11-19T02:30:18.916Z,2.4
2023-11-19T02:31:19.346Z,2.6
2023-11-19T02:32:20.386Z,2.4
2023-11-19T02:33:20.275Z,2.4
2023-11-19T02:34:20.303Z,2.6
2023-11-19T02:35:20.694Z,2.3
2023-11-19T02:36:21.020Z,2.8
2023-11-19T02:37:21.181Z,2.8
2023-11-19T02:38:21.739Z,2.3
2023-11-19T02:39:22.049Z,2.5
2023-11-19T02:40:22.191Z,2.7
2023-11-19T02:41:22.591Z,2.6
2023-11-19T02:42:22.896Z,2.6
2023-11-19T02:43:23.320Z,2.5
2023-11-19T02:44:23.929Z,2.3
2023-11-19T02:45:24.660Z,2.6
2023-11-19T02:46:24.401Z,2.7
2023-11-19T02:47:24.913Z,2.4
2023-11-19T02:48:25.085Z,2.4
2023-11-19T02:49:25.508Z,2.8
2023-11-19T02:50:26.840Z,3
2023-11-19T02:51:26.207Z,2.5
2023-11-19T02:52:26.645Z,2.5
2023-11-19T02:53:26.795Z,2.6
2023-11-19T02:54:27.279Z,2.5
2023-11-19T02:55:27.707Z,2.7
2023-11-19T02:56:28.016Z,2.9
2023-11-19T02:57:32.423Z,2.9
2023-11-19T02:58:29.890Z,2.4
2023-11-19T02:59:30.281Z,2.7
2023-11-19T03:00:30.598Z,2.4
2023-11-19T03:01:31.967Z,3.1
2023-11-19T03:02:31.354Z,2.4
2023-11-19T03:03:31.581Z,2.8
2023-11-19T03:04:31.875Z,3
2023-11-19T03:05:32.374Z,2.5
2023-11-19T03:06:32.783Z,2.7
2023-11-19T03:07:32.682Z,2.6
2023-11-19T03:08:33.972Z,2.5
2023-11-19T03:09:33.523Z,2.3
2023-11-19T03:10:34.098Z,2.6
2023-11-19T03:11:34.343Z,2.9
2023-11-19T03:12:34.452Z,2.4
2023-11-19T03:13:34.979Z,2.5
2023-11-19T03:14:35.922Z,3
2023-11-19T03:15:35.817Z,2.5
2023-11-19T03:16:36.111Z,2.7
2023-11-19T03:17:45.728Z,2.5
2023-11-19T03:18:38.183Z,3.1
2023-11-19T03:19:38.563Z,2.6
2023-11-19T03:20:38.939Z,2.8
2023-11-19T03:21:39.185Z,2.8
2023-11-19T03:22:39.452Z,2.6
2023-11-19T03:23:39.792Z,2.5
2023-11-19T03:24:40.277Z,2.5
2023-11-19T03:25:40.784Z,2.7
2023-11-19T03:26:41.061Z,2.6
2023-11-19T03:27:41.516Z,2.8
2023-11-19T03:28:41.652Z,2.9
2023-11-19T03:29:42.041Z,2.9
2023-11-19T03:30:42.266Z,2.8
2023-11-19T03:31:45.695Z,2.6
2023-11-19T03:32:43.211Z,2.8
2023-11-19T03:33:43.628Z,2.7
2023-11-19T03:34:43.905Z,2.6
2023-11-19T03:35:44.336Z,2.7
2023-11-19T03:36:44.443Z,2.9
2023-11-19T03:37:44.866Z,2.9
2023-11-19T03:38:45.076Z,2.7
2023-11-19T03:39:45.530Z,2.9
2023-11-19T03:40:45.795Z,2.5
2023-11-19T03:41:48.885Z,2.7
2023-11-19T03:42:48.984Z,2.6
2023-11-19T03:43:46.690Z,2.6
2023-11-19T03:44:47.134Z,2.7
2023-11-19T03:45:47.830Z,2.5
2023-11-19T03:46:48.426Z,2.8
2023-11-19T03:47:48.015Z,2.2
2023-11-19T03:48:49.249Z,2.7
2023-11-19T03:49:52.520Z,2.6
2023-11-19T03:50:49.975Z,2.6
2023-11-19T03:51:50.129Z,2.6
2023-11-19T03:52:50.881Z,2.7
2023-11-19T03:53:50.867Z,2.7
2023-11-19T03:54:51.388Z,2.6
2023-11-19T03:55:51.748Z,2.5
2023-11-19T03:56:52.061Z,2.3
2023-11-19T03:57:52.583Z,2.8
2023-11-19T03:58:52.882Z,2.9
2023-11-19T03:59:53.236Z,2.4
2023-11-19T04:00:53.543Z,2.8
2023-11-19T04:01:54.003Z,2.7
2023-11-19T04:02:54.166Z,2.6
2023-11-19T04:03:54.633Z,2.5
2023-11-19T04:04:55.451Z,2.6
2023-11-19T04:05:55.196Z,2.8
2023-11-19T04:06:56.337Z,2.7
2023-11-19T04:07:55.902Z,2.8
2023-11-19T04:08:56.239Z,3
2023-11-19T04:09:56.557Z,3.3
2023-11-19T04:10:57.065Z,2.7
2023-11-19T04:11:58.403Z,2.7
2023-11-19T04:12:57.830Z,2.3
2023-11-19T04:13:58.291Z,2.8
2023-11-19T04:15:02.256Z,2.6
2023-11-19T04:16:00.428Z,3.3
2023-11-19T04:17:00.334Z,2.7
2023-11-19T04:18:00.725Z,2.6
2023-11-19T04:19:01.164Z,2.9
2023-11-19T04:20:01.572Z,3.1
2023-11-19T04:21:01.939Z,2.9
2023-11-19T04:22:02.400Z,2.7
2023-11-19T04:23:02.720Z,2.6
2023-11-19T04:24:03.086Z,2.6
2023-11-19T04:25:04.258Z,2.6
2023-11-19T04:27:05.949Z,2.7
2023-11-19T04:28:05.973Z,2.7
2023-11-19T04:29:06.398Z,2.8
2023-11-19T04:30:07.856Z,2.7
2023-11-19T04:31:07.805Z,2.9
2023-11-19T04:32:07.760Z,2.8
2023-11-19T04:33:07.858Z,3
2023-11-19T04:34:08.404Z,3
2023-11-19T04:35:09.566Z,2.8
2023-11-19T04:36:10.142Z,3.7
2023-11-19T04:38:09.805Z,3.4
2023-11-19T04:39:10.382Z,2.9
2023-11-19T04:40:11.627Z,2.9
2023-11-19T04:41:10.985Z,2.8
2023-11-19T04:42:11.305Z,2.6
2023-11-19T04:43:11.762Z,2.9
2023-11-19T04:44:12.181Z,2.6
2023-11-19T04:45:12.972Z,2.8
2023-11-19T04:46:13.260Z,2.6
2023-11-19T04:47:13.671Z,2.7
2023-11-19T04:48:13.800Z,3.4
2023-11-19T04:49:15.071Z,3.2
2023-11-19T04:50:14.765Z,2.8
2023-11-19T04:51:15.164Z,2.7
2023-11-19T04:52:15.538Z,3
2023-11-19T04:53:15.976Z,3.1
2023-11-19T04:54:16.190Z,2.7
2023-11-19T04:55:17.015Z,3.1
2023-11-19T04:56:16.914Z,3.3
2023-11-19T04:57:18.267Z,3.2
2023-11-19T04:58:17.801Z,2.6
2023-11-19T04:59:18.015Z,3.4
2023-11-19T05:00:20.132Z,2.8
2023-11-19T05:01:19.036Z,2.8
2023-11-19T05:02:19.326Z,3.1
2023-11-19T05:03:19.875Z,2.9
2023-11-19T05:04:20.648Z,3.5
2023-11-19T05:05:20.905Z,3
2023-11-19T05:06:21.002Z,3.3
2023-11-19T05:07:21.658Z,2.8
2023-11-19T05:08:21.743Z,3.3
2023-11-19T05:09:22.297Z,2.8
2023-11-19T05:10:22.625Z,3.3
2023-11-19T05:11:23.423Z,2.5
2023-11-19T05:12:23.287Z,2.8
2023-11-19T05:13:23.777Z,2.6
2023-11-19T05:14:23.997Z,2.4
2023-11-19T05:15:24.462Z,2.9
2023-11-19T05:16:25.170Z,3.1
2023-11-19T05:17:25.398Z,2.7
2023-11-19T05:18:25.366Z,2.8
2023-11-19T05:19:25.921Z,2.9
2023-11-19T05:20:26.875Z,2.8
2023-11-19T05:21:27.432Z,2.8
2023-11-19T05:22:27.556Z,3
2023-11-19T05:23:27.907Z,3
2023-11-19T05:24:28.296Z,2.9
2023-11-19T05:25:29.058Z,3.2
2023-11-19T05:26:29.210Z,2.7
2023-11-19T05:27:29.422Z,2.9
2023-11-19T05:28:29.774Z,3.1
2023-11-19T05:29:29.946Z,2.9
2023-11-19T05:30:30.357Z,2.7
2023-11-19T05:31:32.312Z,3.2
2023-11-19T05:32:31.236Z,2.6
2023-11-19T05:33:31.654Z,2.4
2023-11-19T05:34:32.172Z,2.9
2023-11-19T05:35:32.241Z,2.7
2023-11-19T05:36:32.800Z,2.7
2023-11-19T05:37:33.098Z,2.9
2023-11-19T05:38:33.603Z,2.7
2023-11-19T05:39:34.316Z,2.6
2023-11-19T05:40:34.490Z,2.8
2023-11-19T05:41:34.831Z,2.6
2023-11-19T05:42:35.049Z,2.9
2023-11-19T05:43:35.719Z,2.8
2023-11-19T05:44:38.309Z,2.8
2023-11-19T05:45:37.120Z,2.8
2023-11-19T05:46:37.765Z,2.8
2023-11-19T05:47:38.029Z,2.9
2023-11-19T05:48:38.285Z,2.7
2023-11-19T05:49:38.887Z,2.9
2023-11-19T05:50:39.342Z,2.6
2023-11-19T05:51:40.275Z,2.7
2023-11-19T05:52:40.139Z,2.6
2023-11-19T05:53:40.454Z,3
2023-11-19T05:54:40.866Z,3.1
2023-11-19T05:55:41.393Z,3.3
2023-11-19T05:56:41.720Z,2.7
2023-11-19T05:58:42.517Z,2.7
2023-11-19T05:59:42.633Z,2.9
2023-11-19T06:00:43.191Z,3
2023-11-19T06:01:43.582Z,3.2
2023-11-19T06:02:43.810Z,3.1
2023-11-19T06:03:44.115Z,2.9
2023-11-19T06:04:44.538Z,2.5
2023-11-19T06:05:48.620Z,2.9
2023-11-19T06:06:46.149Z,2.7
2023-11-19T06:07:46.586Z,2.9
2023-11-19T06:08:46.839Z,2.9
2023-11-19T06:09:47.319Z,2.7
2023-11-19T06:10:48.063Z,3
2023-11-19T06:11:48.086Z,3
2023-11-19T06:12:48.386Z,2.9
2023-11-19T06:13:49.147Z,2.8
2023-11-19T06:14:49.297Z,2.7
2023-11-19T06:15:49.711Z,2.6
2023-11-19T06:16:50.336Z,2.7
2023-11-19T06:17:50.589Z,3
2023-11-19T06:18:50.990Z,2.9
2023-11-19T06:19:51.327Z,3
2023-11-19T06:20:51.518Z,2.9
2023-11-19T06:21:52.191Z,2.6
2023-11-19T06:22:52.519Z,2.9
2023-11-19T06:23:52.718Z,3.2
2023-11-19T06:24:53.467Z,3
2023-11-19T06:25:53.682Z,3
2023-11-19T06:26:53.989Z,2.9
2023-11-19T06:27:54.284Z,3
2023-11-19T06:28:54.610Z,2.8
2023-11-19T06:29:55.024Z,2.9
2023-11-19T06:30:55.429Z,2.7
2023-11-19T06:31:55.800Z,2.9
2023-11-19T06:32:56.170Z,2.9
2023-11-19T06:33:56.698Z,2.8
2023-11-19T06:34:57.399Z,2.8
2023-11-19T06:35:57.532Z,2.8
2023-11-19T06:36:58.056Z,3
2023-11-19T06:37:58.348Z,3
2023-11-19T06:38:58.766Z,3
2023-11-19T06:39:59.296Z,3.1
2023-11-19T06:40:59.591Z,2.9
2023-11-19T06:42:00.045Z,2.9
2023-11-19T06:43:00.994Z,2.8
2023-11-19T06:44:00.990Z,2.9
2023-11-19T06:45:01.204Z,2.8
2023-11-19T06:46:01.691Z,2.8
2023-11-19T06:47:02.171Z,3.1
2023-11-19T06:48:02.948Z,3.4
2023-11-19T06:49:02.858Z,3.7
2023-11-19T06:50:03.565Z,7.4
2023-11-19T06:51:06.464Z,5
2023-11-19T06:52:04.712Z,3.3
2023-11-19T06:53:04.591Z,3
2023-11-19T06:54:05.018Z,2.8
2023-11-19T06:55:09.340Z,2.8
2023-11-19T06:56:18.438Z,3.1
2023-11-19T06:57:10.866Z,3
2023-11-19T06:58:11.077Z,3.7
2023-11-19T06:59:11.455Z,3.1
2023-11-19T07:00:13.001Z,3.6
2023-11-19T07:01:12.266Z,3.3
2023-11-19T07:02:12.804Z,3.5
2023-11-19T07:03:12.895Z,4
2023-11-19T07:04:13.496Z,3.9
2023-11-19T07:05:13.593Z,4.8
2023-11-19T07:06:14.336Z,3.6
2023-11-19T07:07:14.609Z,3
2023-11-19T07:08:15.576Z,3.1
2023-11-19T07:09:15.288Z,3
2023-11-19T07:10:15.678Z,3.1
2023-11-19T07:11:16.817Z,3.3
2023-11-19T07:12:16.444Z,2.8
2023-11-19T07:13:16.930Z,2.9
2023-11-19T07:14:17.415Z,3.3
2023-11-19T07:15:18.042Z,2.6
2023-11-19T07:16:18.075Z,2.9
2023-11-19T07:17:19.022Z,3
2023-11-19T07:18:18.938Z,3.2
2023-11-19T07:19:19.405Z,2.5
2023-11-19T07:20:19.748Z,2.7
2023-11-19T07:21:19.938Z,2.8
2023-11-19T07:22:20.451Z,3
2023-11-19T07:23:20.857Z,2.7
2023-11-19T07:24:21.905Z,3.1
2023-11-19T07:25:21.425Z,3.4
2023-11-19T07:26:22.355Z,3.4
2023-11-19T07:27:22.337Z,3.6
2023-11-19T07:28:22.750Z,4.3
2023-11-19T07:30:23.775Z,4.1
2023-11-19T07:31:24.727Z,3.6
2023-11-19T07:32:24.360Z,4
2023-11-19T07:33:24.783Z,3.2
2023-11-19T07:34:26.131Z,3
2023-11-19T07:35:25.386Z,13.4
2023-11-19T07:36:25.660Z,6
2023-11-19T07:37:26.051Z,5.3
2023-11-19T07:38:26.359Z,4.3
2023-11-19T07:39:26.704Z,3.4
2023-11-19T07:40:28.422Z,3.4
2023-11-19T07:41:27.409Z,3.6
2023-11-19T07:42:27.695Z,3.7
2023-11-19T07:43:28.375Z,3.4
2023-11-19T07:44:28.424Z,3.9
2023-11-19T07:45:28.809Z,3.4
2023-11-19T07:46:29.142Z,3.3
2023-11-19T07:47:29.503Z,3.1
2023-11-19T07:48:29.751Z,3.2
2023-11-19T07:49:30.069Z,3.3
2023-11-19T07:50:30.519Z,3.1
2023-11-19T07:51:30.879Z,3.2
2023-11-19T07:52:31.159Z,2.9
2023-11-19T07:53:31.539Z,3.5
2023-11-19T07:54:31.930Z,10.1
2023-11-19T07:55:33.542Z,6.1
2023-11-19T07:56:34.548Z,3.6
2023-11-19T07:57:32.993Z,3.3
2023-11-19T07:58:33.416Z,3.2
2023-11-19T07:59:33.620Z,3.1
2023-11-19T08:00:33.848Z,3
2023-11-19T08:01:34.359Z,3.4
2023-11-19T08:02:35.009Z,3.1
2023-11-19T08:03:35.359Z,2.9
2023-11-19T08:04:35.479Z,3
2023-11-19T08:05:35.632Z,2.9
2023-11-19T08:06:36.435Z,3.2
2023-11-19T08:07:36.280Z,2.8
2023-11-19T08:08:36.953Z,3.2
2023-11-19T08:09:37.046Z,3
2023-11-19T08:10:37.273Z,3
2023-11-19T08:11:37.552Z,2.9
2023-11-19T08:12:38.321Z,2.9
2023-11-19T08:13:38.157Z,3
2023-11-19T08:14:38.739Z,2.9
2023-11-19T08:15:38.829Z,3.4
2023-11-19T08:16:41.074Z,3.2
2023-11-19T08:17:40.499Z,3.1
2023-11-19T08:18:42.347Z,3.1
2023-11-19T08:19:40.400Z,2.8
2023-11-19T08:20:40.942Z,3
2023-11-19T08:21:40.921Z,3.1
2023-11-19T08:22:41.272Z,3.3
2023-11-19T08:23:41.575Z,3.4
2023-11-19T08:24:41.972Z,3.7
2023-11-19T08:25:42.179Z,3.6
2023-11-19T08:26:42.510Z,3.6
2023-11-19T08:27:42.913Z,3.1
2023-11-19T08:28:43.071Z,3.1
2023-11-19T08:29:43.654Z,3.1
2023-11-19T08:30:43.781Z,2.9
2023-11-19T08:31:44.279Z,3.1
2023-11-19T08:32:44.613Z,3.1
2023-11-19T08:33:44.779Z,3
2023-11-19T08:34:45.061Z,3.4
2023-11-19T08:35:45.393Z,2.9
2023-11-19T08:36:45.676Z,3.4
2023-11-19T08:37:46.661Z,3.1
2023-11-19T08:38:46.498Z,3
2023-11-19T08:39:46.672Z,3
2023-11-19T08:40:47.092Z,3.2
2023-11-19T08:41:47.396Z,3.2
2023-11-19T08:42:47.774Z,2.9
2023-11-19T08:43:48.158Z,3.3
2023-11-19T08:44:51.559Z,2.9
2023-11-19T08:45:49.189Z,3.4
2023-11-19T08:46:50.308Z,3.9
2023-11-19T08:47:49.736Z,3.7
2023-11-19T08:48:49.895Z,3.3
2023-11-19T08:50:53.737Z,3.3
2023-11-19T08:51:54.193Z,3
2023-11-19T08:52:54.448Z,3.2
2023-11-19T08:53:54.741Z,3
2023-11-19T08:54:55.104Z,3
2023-11-19T08:55:55.495Z,2.8
2023-11-19T08:56:55.742Z,2.8
2023-11-19T08:57:56.128Z,3.1
2023-11-19T08:58:56.477Z,3.1
2023-11-19T08:59:56.689Z,3
2023-11-19T09:00:57.309Z,2.8
2023-11-19T09:01:57.284Z,3.4
2023-11-19T09:02:57.887Z,3.5
2023-11-19T09:03:58.107Z,3.3
2023-11-19T09:04:58.527Z,3.2
2023-11-19T09:05:58.626Z,3.3
2023-11-19T09:06:59.552Z,3.1
2023-11-19T09:07:59.359Z,3.5
2023-11-19T09:09:00.215Z,3.3
2023-11-19T09:09:59.936Z,3.1
2023-11-19T09:11:00.392Z,3.3
2023-11-19T09:12:00.713Z,3.2
2023-11-19T09:13:01.013Z,3.2
2023-11-19T09:14:01.291Z,3.4
2023-11-19T09:15:01.851Z,3.4
2023-11-19T09:16:02.076Z,3
2023-11-19T09:17:02.128Z,3.3
2023-11-19T09:18:03.052Z,3
2023-11-19T09:19:04.433Z,3.4
2023-11-19T09:20:03.323Z,3
2023-11-19T09:21:03.973Z,3.2
2023-11-19T09:22:04.047Z,3.2
2023-11-19T09:23:04.607Z,3.5
2023-11-19T09:24:05.189Z,3.2
2023-11-19T09:25:05.635Z,2.8
2023-11-19T09:26:06.031Z,3
2023-11-19T09:27:06.079Z,3.5
2023-11-19T09:28:05.928Z,3.3
2023-11-19T09:29:06.203Z,3.3
2023-11-19T09:30:07.718Z,2.7
2023-11-19T09:31:19.247Z,3
2023-11-19T09:32:11.673Z,3.2
2023-11-19T09:33:12.109Z,2.9
2023-11-19T09:34:12.326Z,2.8
2023-11-19T09:35:12.565Z,2.8
2023-11-19T09:36:16.176Z,3.2
2023-11-19T09:38:13.965Z,3.1
2023-11-19T09:39:14.607Z,3.1
2023-11-19T09:40:14.813Z,3.1
2023-11-19T09:41:15.166Z,2.9
2023-11-19T09:42:15.446Z,3.1
2023-11-19T09:43:16.790Z,3.4
2023-11-19T09:44:16.122Z,3.1
2023-11-19T09:45:18.117Z,3
2023-11-19T09:46:17.776Z,3.4
2023-11-19T09:47:18.732Z,3.1
2023-11-19T09:48:20.958Z,3.1
2023-11-19T09:49:36.102Z,3.1
2023-11-19T09:50:20.420Z,2.8
2023-11-19T09:51:19.081Z,3.1
2023-11-19T09:52:19.606Z,3.4
2023-11-19T09:53:20.054Z,3.2
2023-11-19T09:54:20.231Z,3.4
2023-11-19T09:55:20.337Z,3.4
2023-11-19T09:56:21.110Z,3.4
2023-11-19T09:57:21.218Z,3.2
2023-11-19T09:58:21.588Z,3.6
2023-11-19T09:59:22.170Z,3.2
2023-11-19T10:00:22.790Z,3.6
2023-11-19T10:01:26.600Z,3.3
2023-11-19T10:02:30.658Z,3.6
2023-11-19T10:04:31.600Z,3.4
2023-11-19T10:05:30.606Z,3.6
2023-11-19T10:06:30.961Z,3.1
2023-11-19T10:07:31.478Z,3.1
2023-11-19T10:08:31.722Z,3.6
2023-11-19T10:09:32.308Z,4.2
2023-11-19T10:10:32.111Z,3.3
2023-11-19T10:11:32.645Z,3.2
2023-11-19T10:12:32.806Z,3
2023-11-19T10:13:35.973Z,3.6
2023-11-19T10:14:36.175Z,3.2
2023-11-19T10:15:37.620Z,3.3
2023-11-19T10:16:36.183Z,3.3
2023-11-19T10:17:35.684Z,3.3
2023-11-19T10:18:35.717Z,3.3
2023-11-19T10:19:36.473Z,3
2023-11-19T10:21:39.064Z,3.6
2023-11-19T10:22:39.363Z,2.8
2023-11-19T10:24:46.658Z,3.6
2023-11-19T10:25:46.761Z,3.2
2023-11-19T10:26:47.089Z,3.4
2023-11-19T10:27:47.479Z,3.2
2023-11-19T10:28:50.866Z,3.1
2023-11-19T10:29:49.001Z,3
2023-11-19T10:30:49.460Z,3.4
2023-11-19T10:31:57.621Z,3.4
2023-11-19T10:33:50.267Z,3.1
2023-11-19T10:34:50.652Z,3
2023-11-19T10:36:52.353Z,3.5
2023-11-19T10:37:52.778Z,3.1
2023-11-19T10:38:57.594Z,3.1
2023-11-19T10:39:55.911Z,3.1
2023-11-19T10:40:55.897Z,3.1
2023-11-19T10:41:59.116Z,3.6
2023-11-19T10:43:04.094Z,3.2
2023-11-19T10:44:01.333Z,3.1
2023-11-19T10:45:01.940Z,3
2023-11-19T10:47:09.324Z,2.8
2023-11-19T10:48:08.421Z,3.1
2023-11-19T10:49:08.416Z,3.3
2023-11-19T10:50:08.538Z,3.3
2023-11-19T10:51:08.673Z,3.5
2023-11-19T10:52:10.277Z,3.3
2023-11-19T10:53:11.152Z,3.8
2023-11-19T10:54:10.310Z,3.5
2023-11-19T10:55:12.343Z,3.8
2023-11-19T10:56:14.428Z,5.6
2023-11-19T10:57:17.834Z,6.7
2023-11-19T10:58:17.378Z,15
2023-11-19T11:00:20.679Z,12.3
2023-11-19T11:01:20.881Z,15.9
2023-11-19T11:02:23.048Z,15.4
2023-11-19T11:03:21.817Z,7.9
2023-11-19T11:04:25.224Z,4.3
2023-11-19T11:05:25.445Z,3.6
2023-11-19T11:06:23.624Z,3.6
2023-11-19T11:07:29.963Z,3.2
2023-11-19T11:08:24.116Z,3.2
2023-11-19T11:09:24.730Z,3.5
2023-11-19T11:10:27.419Z,5.7
2023-11-19T11:11:27.312Z,6.8
2023-11-19T11:12:26.427Z,10.3
2023-11-19T11:13:27.303Z,6.4
2023-11-19T11:14:28.032Z,7.6
2023-11-19T11:15:30.022Z,5.5
2023-11-19T11:16:28.456Z,5.5
2023-11-19T11:17:32.620Z,4.5
2023-11-19T11:18:30.152Z,4.1
2023-11-19T11:19:30.752Z,3.8
2023-11-19T11:20:35.601Z,3.5
2023-11-19T11:21:33.821Z,3.8
2023-11-19T11:38:23.388Z,3.8
2023-11-19T11:39:23.760Z,3.5
2023-11-19T11:40:21.220Z,3.3
2023-11-19T11:41:24.321Z,3
2023-11-19T11:48:36.374Z,3.2
2023-11-19T11:49:36.475Z,3.2
2023-11-19T11:50:48.135Z,3.6
2023-11-19T11:53:48.365Z,3.1
2023-11-19T11:54:46.064Z,2.8
2023-11-19T11:57:48.934Z,3.6
2023-11-19T11:58:48.539Z,3.3
2023-11-19T11:59:50.249Z,3.3
2023-11-19T12:00:50.147Z,3.9
2023-11-19T12:02:55.481Z,7.8
2023-11-19T12:03:57.091Z,6.3
2023-11-19T12:04:54.909Z,6.8
2023-11-19T12:05:55.020Z,3.6
2023-11-19T12:08:05.809Z,20.7
2023-11-19T12:09:03.890Z,10.4
2023-11-19T12:10:10.726Z,13.4
2023-11-19T12:11:08.351Z,11.6
2023-11-19T12:13:11.028Z,10.2
2023-11-19T12:14:11.293Z,5.7
2023-11-19T12:15:11.886Z,4
2023-11-19T12:16:12.467Z,3.7
2023-11-19T12:18:20.518Z,2.8
2023-11-19T12:19:19.410Z,3.5
2023-11-19T12:20:34.532Z,3.4
2023-11-19T12:21:34.326Z,2.9
2023-11-19T12:22:27.062Z,3.2
2023-11-19T12:23:29.630Z,3.4
2023-11-19T12:24:28.306Z,3
2023-11-19T12:25:28.216Z,2.9
2023-11-19T12:26:40.917Z,2.8
2023-11-19T12:27:29.477Z,3.1
2023-11-19T12:28:28.440Z,2.8
2023-11-19T12:29:29.063Z,3.2
2023-11-19T12:30:29.093Z,3.1
2023-11-19T12:31:29.679Z,3.1
2023-11-19T12:33:32.324Z,3.2
2023-11-19T12:34:30.581Z,2.9
2023-11-19T12:35:30.941Z,3.1
2023-11-19T12:36:31.372Z,3.5
2023-11-19T12:37:31.666Z,2.9
2023-11-19T12:38:31.877Z,3.2
2023-11-19T12:39:32.684Z,3.1
2023-11-19T12:40:32.852Z,3.4
2023-11-19T12:41:32.936Z,3.2
2023-11-19T12:42:39.014Z,3.8
2023-11-19T12:43:51.250Z,3.6
2023-11-19T12:44:39.138Z,4.2
2023-11-19T12:45:39.313Z,3.7
2023-11-19T12:46:39.836Z,3.3
2023-11-19T12:47:41.097Z,4
2023-11-19T12:48:42.996Z,3.3
2023-11-19T12:49:40.747Z,2.8
2023-11-19T12:50:54.185Z,3.4
2023-11-19T12:51:41.725Z,2.9
2023-11-19T12:52:42.110Z,4.1
2023-11-19T12:53:54.233Z,3.3
2023-11-19T12:54:46.699Z,4.4
2023-11-19T12:55:47.154Z,3
2023-11-19T12:56:54.278Z,3
2023-11-19T12:57:51.676Z,3.2
2023-11-19T12:58:52.097Z,3.3
2023-11-19T12:59:58.444Z,3.3
2023-11-19T13:01:01.160Z,3.3
2023-11-19T13:01:59.409Z,3.5
2023-11-19T13:03:00.131Z,3.1
2023-11-19T13:03:59.506Z,3.2
2023-11-19T13:05:00.007Z,3.1
2023-11-19T13:06:04.544Z,2.9
2023-11-19T13:07:06.148Z,3.8
2023-11-19T13:08:09.503Z,4.4
2023-11-19T13:09:06.888Z,3.4
2023-11-19T13:10:08.054Z,4.1
2023-11-19T13:11:08.233Z,5.8
2023-11-19T13:12:16.023Z,5.2
2023-11-19T13:13:09.879Z,4.8
2023-11-19T13:14:08.873Z,3.8
2023-11-19T13:16:10.703Z,3.6
2023-11-19T13:17:14.680Z,3
2023-11-19T13:18:12.726Z,3.2
2023-11-19T13:19:12.491Z,3.5
2023-11-19T13:20:13.009Z,2.8
2023-11-19T13:21:13.116Z,3.1
2023-11-19T13:22:13.434Z,3.3
2023-11-19T13:23:13.952Z,4.2
2023-11-19T13:24:14.752Z,5.5
2023-11-19T13:25:14.490Z,3.7
2023-11-19T13:26:15.374Z,3.9
2023-11-19T13:27:15.299Z,3.6
2023-11-19T13:28:15.478Z,3.1
2023-11-19T13:29:15.831Z,3.2
2023-11-19T13:31:18.146Z,21.4
2023-11-19T13:32:18.262Z,14.9
2023-11-19T13:33:18.680Z,3.6
2023-11-19T13:34:18.898Z,3.2
2023-11-19T13:35:20.143Z,6.2
2023-11-19T13:36:19.631Z,4
2023-11-19T13:37:19.977Z,4.1
2023-11-19T13:38:20.306Z,5.5
2023-11-19T13:39:20.613Z,5.5
2023-11-19T13:40:21.048Z,4.2
2023-11-19T13:41:21.762Z,3.7
2023-11-19T13:42:21.540Z,3.7
2023-11-19T13:43:24.164Z,3.4
2023-11-19T13:44:22.701Z,3
2023-11-19T13:45:23.223Z,2.8
2023-11-19T13:46:23.433Z,2.5
2023-11-19T13:47:23.843Z,2.9
2023-11-19T13:48:24.050Z,2.4
2023-11-19T13:49:25.251Z,2.9
2023-11-19T13:50:24.676Z,2.7
2023-11-19T13:51:25.094Z,3.8
2023-11-19T13:52:25.307Z,4.7
2023-11-19T13:53:25.602Z,3.3
2023-11-19T13:54:26.035Z,3.2
2023-11-19T13:55:26.764Z,2.6
2023-11-19T13:56:26.649Z,2.5
2023-11-19T13:57:26.813Z,2.5
2023-11-19T13:58:27.181Z,2.5
2023-11-19T13:59:27.607Z,2.4
2023-11-19T14:00:27.850Z,2.7
2023-11-19T14:01:28.337Z,2.4
2023-11-19T14:02:28.481Z,2.6
2023-11-19T14:03:29.149Z,2.4
2023-11-19T14:04:29.382Z,2.3
2023-11-19T14:06:30.075Z,2.5
2023-11-19T14:07:30.414Z,2.4
2023-11-19T14:08:30.617Z,2.4
2023-11-19T14:09:30.932Z,2.4
2023-11-19T14:10:31.227Z,3.8
2023-11-19T14:11:31.603Z,5.8
2023-11-19T14:12:32.276Z,4.2
2023-11-19T14:13:32.217Z,4.9
2023-11-19T14:14:32.716Z,5
2023-11-19T14:15:33.064Z,3.4
2023-11-19T14:16:33.639Z,3.3
2023-11-19T14:17:34.242Z,2.3
2023-11-19T14:18:35.017Z,2.4
2023-11-19T14:19:34.401Z,2.6
2023-11-19T14:20:34.611Z,2.5
2023-11-19T14:21:35.063Z,2.5
2023-11-19T14:22:35.342Z,2.3
2023-11-19T14:23:35.555Z,2.5
2023-11-19T14:24:36.070Z,3
2023-11-19T14:25:36.277Z,3.4
2023-11-19T14:26:36.962Z,3.4
2023-11-19T14:27:41.022Z,3.6
2023-11-19T14:28:55.509Z,4
2023-11-19T14:29:43.880Z,8.4
2023-11-19T14:30:43.860Z,20.8
2023-11-19T14:31:44.209Z,15.3
2023-11-19T14:32:44.441Z,13
2023-11-19T14:33:44.752Z,8.1
2023-11-19T14:34:45.135Z,5.3
2023-11-19T14:35:45.526Z,6.4
2023-11-19T14:36:45.884Z,7.4
2023-11-19T14:37:46.016Z,6.6
2023-11-19T14:38:46.462Z,6.8
2023-11-19T14:39:48.908Z,7.4
2023-11-19T14:40:48.059Z,9.1
2023-11-19T14:41:47.842Z,10.6
2023-11-19T14:42:48.162Z,9.1
2023-11-19T14:43:48.378Z,6.1
2023-11-19T14:44:48.620Z,6.7
2023-11-19T14:45:50.570Z,7.6
2023-11-19T14:46:49.500Z,6
2023-11-19T14:47:49.702Z,4.4
2023-11-19T14:48:50.094Z,5
2023-11-19T14:49:50.602Z,4.1
2023-11-19T14:50:50.612Z,4.4
2023-11-19T14:51:52.042Z,5.3